createdAt,value
2022-12-18T00:02:02.942Z,98965.44
2022-12-18T00:05:05.240Z,98976.25
2022-12-18T00:08:09.392Z,98989.59
2022-12-18T00:11:17.292Z,98987.13
2022-12-18T00:14:19.377Z,98997.28
2022-12-18T00:17:21.155Z,99011.41
2022-12-18T00:20:26.682Z,99012.84
2022-12-18T00:23:29.216Z,99018.75
2022-12-18T00:26:33.867Z,99028.97
2022-12-18T00:29:37.388Z,99033.16
2022-12-18T00:32:39.326Z,99043.97
2022-12-18T00:35:41.263Z,99042.84
2022-12-18T00:38:43.463Z,99047.75
2022-12-18T00:42:04.162Z,99050.66
2022-12-18T00:45:12.306Z,99071.75
2022-12-18T00:48:14.997Z,99079.84
2022-12-18T00:51:16.780Z,99078.97
2022-12-18T00:54:18.921Z,99080.94
2022-12-18T00:57:20.764Z,99086.50
2022-12-18T01:00:23.319Z,99090.41
2022-12-18T01:03:25.228Z,99099.84
2022-12-18T01:06:27.165Z,99106.25
2022-12-18T01:09:29.177Z,99114.13
2022-12-18T01:12:31.016Z,99111.16
2022-12-18T01:15:32.866Z,99123.69
2022-12-18T01:18:34.758Z,99130.63
2022-12-18T01:21:36.630Z,99133.47
2022-12-18T01:24:39.478Z,99140.19
2022-12-18T01:27:41.446Z,99144.28
2022-12-18T01:30:43.292Z,99139.16
2022-12-18T01:33:45.689Z,99143.22
2022-12-18T01:36:47.584Z,99151.06
2022-12-18T01:39:51.001Z,99145.09
2022-12-18T01:42:53.933Z,99156.19
2022-12-18T01:45:55.692Z,99155.47
2022-12-18T01:49:02.438Z,99153.13
2022-12-18T01:52:04.274Z,99159.41
2022-12-18T01:55:08.271Z,99159.88
2022-12-18T01:58:10.297Z,99169.41
2022-12-18T02:01:12.708Z,99175.56
2022-12-18T02:04:25.452Z,99176.53
2022-12-18T02:07:59.392Z,99164.03
2022-12-18T02:11:16.613Z,99164.00
2022-12-18T02:14:27.241Z,99162.66
2022-12-18T02:17:40.806Z,99164.13
2022-12-18T02:20:50.178Z,99171.22
2022-12-18T02:24:05.557Z,99183.25
2022-12-18T02:27:10.546Z,99184.84
2022-12-18T02:30:14.523Z,99187.81
2022-12-18T02:33:16.911Z,99186.97
2022-12-18T02:36:21.725Z,99213.31
2022-12-18T02:39:28.008Z,99205.16
2022-12-18T02:42:37.609Z,99212.75
2022-12-18T02:45:58.596Z,99216.47
2022-12-18T02:49:20.692Z,99227.31
2022-12-18T02:52:29.917Z,99226.13
2022-12-18T02:56:12.654Z,99223.13
2022-12-18T02:59:25.024Z,99235.63
2022-12-18T03:02:38.573Z,99232.63
2022-12-18T03:05:43.145Z,99242.50
2022-12-18T03:08:50.968Z,99245.38
2022-12-18T03:12:21.700Z,99253.56
2022-12-18T03:15:29.064Z,99257.16
2022-12-18T03:19:03.793Z,99265.59
2022-12-18T03:22:09.411Z,99267.75
2022-12-18T03:25:22.531Z,99275.94
2022-12-18T03:28:34.745Z,99273.19
2022-12-18T03:31:42.895Z,99284.38
2022-12-18T03:34:48.700Z,99282.91
2022-12-18T03:37:53.214Z,99276.91
2022-12-18T03:41:10.526Z,99291.56
2022-12-18T03:44:48.677Z,99296.38
2022-12-18T03:48:09.289Z,99279.31
2022-12-18T03:51:32.132Z,99291.78
2022-12-18T03:54:36.275Z,99298.78
2022-12-18T03:57:48.249Z,99319.25
2022-12-18T04:00:52.758Z,99307.47
2022-12-18T04:03:57.364Z,99314.44
2022-12-18T04:07:00.368Z,99314.66
2022-12-18T04:10:03.960Z,99312.38
2022-12-18T04:13:06.956Z,99325.50
2022-12-18T04:16:10.712Z,99317.78
2022-12-18T04:19:16.592Z,99314.63
2022-12-18T04:22:20.252Z,99317.06
2022-12-18T04:25:27.332Z,99329.44
2022-12-18T04:28:40.073Z,99335.69
2022-12-18T04:31:42.411Z,99352.38
2022-12-18T04:34:45.401Z,99349.13
2022-12-18T04:37:47.434Z,99363.47
2022-12-18T04:40:50.915Z,99362.75
2022-12-18T04:43:59.790Z,99359.09
2022-12-18T04:47:01.637Z,99366.69
2022-12-18T04:50:03.929Z,99373.91
2022-12-18T04:53:05.827Z,99378.34
2022-12-18T04:56:12.861Z,99377.38
2022-12-18T04:59:14.737Z,99383.91
2022-12-18T05:02:16.795Z,99381.72
2022-12-18T05:05:19.209Z,99386.44
2022-12-18T05:08:21.372Z,99392.06
2022-12-18T05:11:23.280Z,99396.28
2022-12-18T05:14:25.212Z,99415.63
2022-12-18T05:17:28.080Z,99405.59
2022-12-18T05:20:30.204Z,99411.13
2022-12-18T05:23:32.033Z,99413.91
2022-12-18T05:26:33.901Z,99424.63
2022-12-18T05:29:35.757Z,99426.81
2022-12-18T05:32:38.286Z,99444.44
2022-12-18T05:35:40.204Z,99442.78
2022-12-18T05:38:42.111Z,99456.31
2022-12-18T05:41:43.910Z,99449.72
2022-12-18T05:44:46.006Z,99468.00
2022-12-18T05:47:47.843Z,99465.31
2022-12-18T05:50:51.389Z,99471.84
2022-12-18T05:53:53.251Z,99483.88
2022-12-18T05:56:55.107Z,99494.69
2022-12-18T05:59:57.208Z,99502.41
2022-12-18T06:03:00.111Z,99508.88
2022-12-18T06:06:02.060Z,99513.53
2022-12-18T06:09:09.233Z,99508.03
2022-12-18T06:12:11.761Z,99515.84
2022-12-18T06:15:13.630Z,99514.78
2022-12-18T06:18:16.030Z,99515.84
2022-12-18T06:21:17.947Z,99513.97
2022-12-18T06:24:19.760Z,99538.63
2022-12-18T06:27:21.659Z,99538.41
2022-12-18T06:30:23.765Z,99536.41
2022-12-18T06:33:29.169Z,99551.53
2022-12-18T06:36:31.135Z,99555.88
2022-12-18T06:39:33.026Z,99561.16
2022-12-18T06:42:34.873Z,99557.25
2022-12-18T06:45:36.755Z,99564.56
2022-12-18T06:48:38.779Z,99566.16
2022-12-18T06:51:40.650Z,99561.41
2022-12-18T06:54:42.481Z,99568.81
2022-12-18T06:57:44.300Z,99581.06
2022-12-18T07:00:46.168Z,99582.13
2022-12-18T07:03:48.061Z,99583.50
2022-12-18T07:06:49.978Z,99585.94
2022-12-18T07:09:52.122Z,99589.63
2022-12-18T07:12:54.024Z,99588.91
2022-12-18T07:15:55.900Z,99590.06
2022-12-18T07:18:57.788Z,99601.38
2022-12-18T07:21:59.621Z,99608.56
2022-12-18T07:25:02.481Z,99620.50
2022-12-18T07:28:04.960Z,99621.47
2022-12-18T07:31:07.581Z,99629.28
2022-12-18T07:34:13.103Z,99639.22
2022-12-18T07:37:15.019Z,99656.75
2022-12-18T07:40:16.960Z,99652.63
2022-12-18T07:43:18.819Z,99655.47
2022-12-18T07:46:20.954Z,99649.66
2022-12-18T07:49:22.880Z,99649.97
2022-12-18T07:52:26.311Z,99649.53
2022-12-18T07:55:28.490Z,99653.25
2022-12-18T07:58:32.054Z,99659.50
2022-12-18T08:01:35.286Z,99664.78
2022-12-18T08:04:37.251Z,99667.19
2022-12-18T08:07:39.148Z,99668.25
2022-12-18T08:10:41.005Z,99678.13
2022-12-18T08:13:43.222Z,99673.69
2022-12-18T08:16:45.397Z,99670.41
2022-12-18T08:19:47.253Z,99667.44
2022-12-18T08:22:49.261Z,99680.97
2022-12-18T08:25:55.057Z,99668.19
2022-12-18T08:28:58.089Z,99677.03
2022-12-18T08:31:59.890Z,99675.66
2022-12-18T08:35:01.801Z,99683.41
2022-12-18T08:38:04.433Z,99684.41
2022-12-18T08:41:09.870Z,99690.25
2022-12-18T08:44:30.388Z,99690.91
2022-12-18T08:47:32.425Z,99682.03
2022-12-18T08:50:34.368Z,99696.97
2022-12-18T08:53:37.169Z,99702.84
2022-12-18T08:56:39.134Z,99701.50
2022-12-18T08:59:40.951Z,99693.38
2022-12-18T09:02:43.052Z,99679.03
2022-12-18T09:05:46.883Z,99686.59
2022-12-18T09:08:48.792Z,99690.06
2022-12-18T09:11:50.684Z,99687.25
2022-12-18T09:14:52.651Z,99696.34
2022-12-18T09:17:54.979Z,99700.66
2022-12-18T09:20:56.932Z,99694.28
2022-12-18T09:23:58.948Z,99699.22
2022-12-18T09:27:00.821Z,99699.63
2022-12-18T09:30:03.879Z,99708.97
2022-12-18T09:33:05.720Z,99708.47
2022-12-18T09:36:11.560Z,99698.41
2022-12-18T09:39:13.456Z,99705.44
2022-12-18T09:42:22.093Z,99717.16
2022-12-18T09:45:25.259Z,99711.47
2022-12-18T09:48:32.574Z,99714.06
2022-12-18T09:51:42.875Z,99719.59
2022-12-18T09:55:14.315Z,99714.72
2022-12-18T09:58:30.796Z,99723.81
2022-12-18T10:01:43.218Z,99723.44
2022-12-18T10:04:56.963Z,99720.97
2022-12-18T10:08:16.826Z,99733.13
2022-12-18T10:11:22.060Z,99735.63
2022-12-18T10:14:58.367Z,99736.66
2022-12-18T10:18:06.429Z,99730.16
2022-12-18T10:21:16.744Z,99733.28
2022-12-18T10:24:39.853Z,99744.88
2022-12-18T10:27:42.001Z,99740.34
2022-12-18T10:30:45.047Z,99739.13
2022-12-18T10:33:47.566Z,99750.31
2022-12-18T10:36:49.458Z,99753.16
2022-12-18T10:40:21.835Z,99758.06
2022-12-18T10:43:27.764Z,99758.72
2022-12-18T10:46:29.686Z,99752.88
2022-12-18T10:49:34.525Z,99751.19
2022-12-18T10:52:38.653Z,99755.50
2022-12-18T10:55:47.018Z,99750.41
2022-12-18T10:59:07.252Z,99766.53
2022-12-18T11:02:27.849Z,99773.50
2022-12-18T11:05:35.015Z,99765.78
2022-12-18T11:08:37.841Z,99777.09
2022-12-18T11:11:39.772Z,99774.25
2022-12-18T11:14:49.053Z,99773.97
2022-12-18T11:17:52.924Z,99775.28
2022-12-18T11:21:08.665Z,99775.56
2022-12-18T11:24:27.208Z,99767.94
2022-12-18T11:27:29.756Z,99777.22
2022-12-18T11:30:34.740Z,99773.75
2022-12-18T11:33:53.123Z,99765.38
2022-12-18T11:37:04.674Z,99782.78
2022-12-18T11:40:17.932Z,99787.09
2022-12-18T11:43:54.089Z,99785.31
2022-12-18T11:47:10.642Z,99794.44
2022-12-18T11:50:23.238Z,99790.59
2022-12-18T11:53:27.018Z,99787.09
2022-12-18T11:56:44.515Z,99801.31
2022-12-18T12:00:12.257Z,99804.63
2022-12-18T12:04:00.247Z,99813.81
2022-12-18T12:07:25.297Z,99813.13
2022-12-18T12:10:50.155Z,99823.41
2022-12-18T12:14:29.287Z,99838.13
2022-12-18T12:17:40.783Z,99849.25
2022-12-18T12:21:01.284Z,99850.72
2022-12-18T12:27:56.042Z,99859.41
2022-12-18T12:31:40.344Z,99860.66
2022-12-18T12:34:54.815Z,99866.53
2022-12-18T12:38:05.608Z,99874.44
2022-12-18T12:41:32.132Z,99872.81
2022-12-18T12:44:39.453Z,99886.59
2022-12-18T12:47:45.038Z,99888.88
2022-12-18T12:50:49.295Z,99888.97
2022-12-18T12:53:53.055Z,99888.44
2022-12-18T12:57:14.627Z,99896.44
2022-12-18T13:00:23.271Z,99899.31
2022-12-18T13:03:25.165Z,99892.00
2022-12-18T13:06:51.372Z,99911.03
2022-12-18T13:10:13.638Z,99899.56
2022-12-18T13:13:23.726Z,99909.41
2022-12-18T13:16:28.638Z,99914.81
2022-12-18T13:19:31.996Z,99917.28
2022-12-18T13:22:46.730Z,99924.25
2022-12-18T13:25:48.598Z,99909.75
2022-12-18T13:28:53.893Z,99921.78
2022-12-18T13:32:00.899Z,99922.38
2022-12-18T13:35:39.355Z,99935.63
2022-12-18T13:38:42.938Z,99937.47
2022-12-18T13:41:53.192Z,99940.03
2022-12-18T13:44:55.061Z,99951.34
2022-12-18T13:47:57.163Z,99956.34
2022-12-18T13:51:01.935Z,99964.50
2022-12-18T13:54:20.978Z,99963.06
2022-12-18T13:57:41.830Z,99960.59
2022-12-18T14:00:44.842Z,99976.50
2022-12-18T14:03:48.047Z,99982.47
2022-12-18T14:06:53.487Z,99980.63
2022-12-18T14:10:12.657Z,99989.38
2022-12-18T14:13:38.385Z,99988.41
2022-12-18T14:16:42.322Z,99992.63
2022-12-18T14:19:48.693Z,99997.56
2022-12-18T14:22:51.095Z,99994.47
2022-12-18T14:25:52.910Z,100009.19
2022-12-18T14:29:02.214Z,100010.66
2022-12-18T14:32:19.023Z,100010.72
2022-12-18T14:35:21.047Z,100024.13
2022-12-18T14:38:33.832Z,100023.34
2022-12-18T14:41:37.229Z,100038.25
2022-12-18T14:44:50.709Z,100033.25
2022-12-18T14:48:01.776Z,100042.06
2022-12-18T14:51:06.093Z,100051.41
2022-12-18T14:54:18.002Z,100054.44
2022-12-18T14:57:25.835Z,100043.66
2022-12-18T15:00:28.028Z,100055.09
2022-12-18T15:03:30.079Z,100062.63
2022-12-18T15:06:33.880Z,100049.50
2022-12-18T15:09:35.947Z,100070.66
2022-12-18T15:12:38.781Z,100075.28
2022-12-18T15:15:41.558Z,100070.66
2022-12-18T15:18:46.280Z,100078.63
2022-12-18T15:21:48.304Z,100088.72
2022-12-18T15:24:50.751Z,100090.28
2022-12-18T15:27:54.017Z,100078.78
2022-12-18T15:31:03.347Z,100087.50
2022-12-18T15:34:24.929Z,100093.84
2022-12-18T15:37:26.819Z,100092.22
2022-12-18T15:40:28.805Z,100098.69
2022-12-18T15:43:37.936Z,100094.84
2022-12-18T15:46:40.062Z,100101.03
2022-12-18T15:49:42.320Z,100107.72
2022-12-18T15:52:47.359Z,100111.91
2022-12-18T15:56:07.707Z,100112.69
2022-12-18T15:59:21.107Z,100123.44
2022-12-18T16:02:24.250Z,100124.78
2022-12-18T16:05:27.771Z,100139.41
2022-12-18T16:08:31.043Z,100141.91
2022-12-18T16:11:43.954Z,100143.31
2022-12-18T16:14:46.906Z,100149.50
2022-12-18T16:17:49.222Z,100152.56
2022-12-18T16:20:51.577Z,100164.06
2022-12-18T16:23:55.723Z,100160.50
2022-12-18T16:27:00.387Z,100158.38
2022-12-18T16:30:02.256Z,100169.66
2022-12-18T16:33:04.259Z,100176.34
2022-12-18T16:36:08.167Z,100177.13
2022-12-18T16:39:10.027Z,100180.28
2022-12-18T16:42:20.571Z,100195.88
2022-12-18T16:45:22.772Z,100196.94
2022-12-18T16:48:24.871Z,100193.09
2022-12-18T16:51:29.771Z,100197.25
2022-12-18T16:54:31.995Z,100210.38
2022-12-18T16:57:33.989Z,100214.03
2022-12-18T17:00:35.885Z,100208.06
2022-12-18T17:03:38.034Z,100204.38
2022-12-18T17:06:43.409Z,100218.19
2022-12-18T17:09:47.281Z,100221.59
2022-12-18T17:12:51.196Z,100226.84
2022-12-18T17:15:53.324Z,100227.13
2022-12-18T17:18:55.229Z,100237.25
2022-12-18T17:21:57.272Z,100241.03
2022-12-18T17:24:59.065Z,100242.88
2022-12-18T17:28:00.870Z,100251.56
2022-12-18T17:31:03.190Z,100249.78
2022-12-18T17:34:05.394Z,100246.97
2022-12-18T17:37:07.537Z,100249.06
2022-12-18T17:40:10.046Z,100244.06
2022-12-18T17:43:14.816Z,100254.59
2022-12-18T17:46:17.042Z,100253.00
2022-12-18T17:49:18.971Z,100264.91
2022-12-18T17:52:20.933Z,100265.09
2022-12-18T17:55:23.229Z,100263.59
2022-12-18T17:58:25.181Z,100273.50
2022-12-18T18:01:27.657Z,100274.56
2022-12-18T18:04:29.628Z,100275.22
2022-12-18T18:07:31.483Z,100277.63
2022-12-18T18:10:38.309Z,100278.88
2022-12-18T18:13:58.773Z,100278.50
2022-12-18T18:17:04.217Z,100282.44
2022-12-18T18:20:07.847Z,100285.06
2022-12-18T18:23:09.902Z,100301.75
2022-12-18T18:26:11.741Z,100308.09
2022-12-18T18:29:16.754Z,100311.88
2022-12-18T18:32:19.090Z,100309.25
2022-12-18T18:35:52.262Z,100303.84
2022-12-18T18:38:48.235Z,100308.91
2022-12-18T18:41:50.542Z,100307.13
2022-12-18T18:44:52.564Z,100315.78
2022-12-18T18:47:55.560Z,100325.03
2022-12-18T18:51:05.448Z,100330.34
2022-12-18T18:54:09.802Z,100337.06
2022-12-18T18:57:20.296Z,100338.91
2022-12-18T19:00:22.734Z,100340.72
2022-12-18T19:03:25.667Z,100348.38
2022-12-18T19:06:29.801Z,100356.78
2022-12-18T19:09:31.760Z,100356.19
2022-12-18T19:12:53.247Z,100370.84
2022-12-18T19:16:05.967Z,100363.22
2022-12-18T19:19:08.166Z,100368.59
2022-12-18T19:22:11.029Z,100369.69
2022-12-18T19:25:12.821Z,100373.34
2022-12-18T19:28:21.811Z,100379.63
2022-12-18T19:31:27.112Z,100382.50
2022-12-18T19:34:31.676Z,100385.13
2022-12-18T19:37:35.563Z,100381.41
2022-12-18T19:40:41.391Z,100375.84
2022-12-18T19:43:44.359Z,100376.81
2022-12-18T19:46:46.653Z,100394.06
2022-12-18T19:49:49.102Z,100388.25
2022-12-18T19:52:52.158Z,100397.22
2022-12-18T19:55:55.592Z,100395.47
2022-12-18T19:58:59.350Z,100400.53
2022-12-18T20:02:02.622Z,100413.34
2022-12-18T20:05:09.138Z,100422.31
2022-12-18T20:08:13.069Z,100417.69
2022-12-18T20:11:16.234Z,100437.66
2022-12-18T20:14:20.653Z,100441.22
2022-12-18T20:17:25.875Z,100434.31
2022-12-18T20:20:27.999Z,100441.09
2022-12-18T20:23:29.850Z,100447.38
2022-12-18T20:26:35.052Z,100447.38
2022-12-18T20:29:36.909Z,100449.94
2022-12-18T20:32:38.793Z,100452.63
2022-12-18T20:35:41.022Z,100461.81
2022-12-18T20:38:43.720Z,100468.72
2022-12-18T20:41:46.250Z,100479.03
2022-12-18T20:44:48.088Z,100476.47
2022-12-18T20:47:50.053Z,100478.34
2022-12-18T20:51:03.830Z,100479.38
2022-12-18T20:54:09.135Z,100498.94
2022-12-18T20:57:13.938Z,100490.31
2022-12-18T21:00:18.939Z,100486.47
2022-12-18T21:03:23.154Z,100487.25
2022-12-18T21:06:25.304Z,100481.59
2022-12-18T21:09:27.275Z,100489.41
2022-12-18T21:12:40.538Z,100485.88
2022-12-18T21:15:55.707Z,100492.91
2022-12-18T21:18:59.935Z,100499.13
2022-12-18T21:22:04.119Z,100493.53
2022-12-18T21:25:06.862Z,100502.38
2022-12-18T21:28:08.658Z,100509.94
2022-12-18T21:31:11.136Z,100523.75
2022-12-18T21:34:27.634Z,100509.56
2022-12-18T21:37:29.555Z,100522.81
2022-12-18T21:40:31.409Z,100525.09
2022-12-18T21:43:52.934Z,100529.56
2022-12-18T21:47:00.596Z,100526.56
2022-12-18T21:50:05.920Z,100533.16
2022-12-18T21:53:07.833Z,100525.69
2022-12-18T21:56:09.720Z,100541.72
2022-12-18T21:59:16.102Z,100533.03
2022-12-18T22:02:21.123Z,100532.69
2022-12-18T22:05:23.535Z,100527.44
2022-12-18T22:08:26.439Z,100525.47
2022-12-18T22:11:28.426Z,100538.78
2022-12-18T22:14:30.284Z,100544.97
2022-12-18T22:17:32.430Z,100552.22
2022-12-18T22:20:34.490Z,100550.28
2022-12-18T22:23:36.289Z,100559.88
2022-12-18T22:26:40.293Z,100554.16
2022-12-18T22:30:00.789Z,100563.06
2022-12-18T22:33:03.678Z,100561.03
2022-12-18T22:36:06.882Z,100569.75
2022-12-18T22:39:20.299Z,100578.31
2022-12-18T22:42:23.127Z,100576.31
2022-12-18T22:45:26.836Z,100569.59
2022-12-18T22:48:28.715Z,100569.75
2022-12-18T22:51:31.259Z,100577.41
2022-12-18T22:54:33.333Z,100571.75
2022-12-18T22:57:35.352Z,100581.13
2022-12-18T23:00:38.571Z,100587.41
2022-12-18T23:03:40.465Z,100589.81
2022-12-18T23:06:43.589Z,100596.25
2022-12-18T23:09:45.581Z,100601.50
2022-12-18T23:12:49.683Z,100600.47
2022-12-18T23:15:51.591Z,100606.25
2022-12-18T23:18:54.987Z,100612.28
2022-12-18T23:21:58.816Z,100609.78
2022-12-18T23:25:00.973Z,100615.94
2022-12-18T23:28:02.900Z,100618.66
2022-12-18T23:31:06.631Z,100625.66
2022-12-18T23:34:11.830Z,100623.97
2022-12-18T23:37:25.020Z,100633.31
2022-12-18T23:40:35.558Z,100633.03
2022-12-18T23:43:38.383Z,100640.97
2022-12-18T23:46:40.399Z,100648.97
2022-12-18T23:49:42.292Z,100652.88
2022-12-18T23:52:44.295Z,100658.41
2022-12-18T23:55:46.146Z,100653.09
2022-12-18T23:58:52.732Z,100658.53
